createdAt,value
2022-08-26T00:00:19.787Z,19.05
2022-08-26T00:02:24.526Z,24.48
2022-08-26T00:04:29.394Z,23.98
2022-08-26T00:06:34.895Z,17.15
2022-08-26T00:08:40.841Z,21.00
2022-08-26T00:10:46.179Z,21.52
2022-08-26T00:12:51.170Z,13.60
2022-08-26T00:14:55.532Z,19.77
2022-08-26T00:17:00.636Z,22.10
2022-08-26T00:19:05.162Z,24.02
2022-08-26T00:21:11.186Z,13.30
2022-08-26T00:23:16.221Z,23.17
2022-08-26T00:25:22.448Z,15.93
2022-08-26T00:27:26.835Z,18.23
2022-08-26T00:29:35.553Z,21.95
2022-08-26T00:31:42.300Z,19.88
2022-08-26T00:33:46.814Z,18.40
2022-08-26T00:35:51.605Z,22.13
2022-08-26T00:37:56.197Z,22.23
2022-08-26T00:40:00.993Z,26.15
2022-08-26T00:42:11.338Z,15.80
2022-08-26T00:44:15.617Z,15.25
2022-08-26T00:46:23.456Z,20.92
2022-08-26T00:48:31.932Z,13.95
2022-08-26T00:50:39.635Z,16.05
2022-08-26T00:52:45.078Z,19.63
2022-08-26T00:54:58.230Z,14.98
2022-08-26T00:57:15.988Z,15.32
2022-08-26T00:59:23.094Z,13.57
2022-08-26T01:01:28.462Z,18.38
2022-08-26T01:03:35.937Z,13.75
2022-08-26T01:05:40.820Z,23.50
2022-08-26T01:07:45.336Z,15.13
2022-08-26T01:09:50.267Z,19.88
2022-08-26T01:11:58.851Z,15.43
2022-08-26T01:14:05.455Z,14.52
2022-08-26T01:16:14.266Z,13.45
2022-08-26T01:18:19.863Z,16.90
2022-08-26T01:20:32.738Z,22.10
2022-08-26T01:22:47.480Z,15.88
2022-08-26T01:24:52.688Z,20.00
2022-08-26T01:26:59.828Z,14.77
2022-08-26T01:29:06.247Z,17.98
2022-08-26T01:31:14.916Z,17.80
2022-08-26T01:33:24.022Z,18.75
2022-08-26T01:35:29.465Z,22.20
2022-08-26T01:37:38.908Z,10.20
2022-08-26T01:39:48.701Z,9.02
2022-08-26T01:41:57.001Z,23.98
2022-08-26T01:44:02.500Z,18.40
2022-08-26T01:46:07.909Z,15.32
2022-08-26T01:48:21.173Z,25.85
2022-08-26T01:50:30.196Z,11.45
2022-08-26T01:52:39.284Z,21.05
2022-08-26T01:54:46.361Z,12.07
2022-08-26T01:56:56.093Z,15.60
2022-08-26T01:59:04.699Z,16.88
2022-08-26T02:01:09.764Z,11.55
2022-08-26T02:03:18.382Z,17.33
2022-08-26T02:05:23.366Z,17.42
2022-08-26T02:07:28.794Z,15.55
2022-08-26T02:09:33.348Z,19.77
2022-08-26T02:11:47.881Z,13.30
2022-08-26T02:13:57.355Z,18.27
2022-08-26T02:16:04.028Z,12.63
2022-08-26T02:18:14.006Z,10.30
2022-08-26T02:20:20.802Z,9.93
2022-08-26T02:22:25.689Z,13.90
2022-08-26T02:24:32.392Z,20.10
2022-08-26T02:26:36.895Z,15.77
2022-08-26T02:28:50.901Z,12.38
2022-08-26T02:30:55.711Z,8.48
2022-08-26T02:33:01.734Z,12.30
2022-08-26T02:35:07.503Z,9.65
2022-08-26T02:37:13.239Z,15.63
2022-08-26T02:39:21.958Z,20.75
2022-08-26T02:41:26.741Z,15.77
2022-08-26T02:43:32.886Z,20.17
2022-08-26T02:45:40.251Z,23.15
2022-08-26T02:47:45.009Z,10.45
2022-08-26T02:49:50.847Z,11.98
2022-08-26T02:51:55.496Z,11.88
2022-08-26T02:54:00.472Z,19.17
2022-08-26T02:56:08.473Z,16.35
2022-08-26T02:58:12.593Z,14.00
2022-08-26T03:00:17.802Z,19.50
2022-08-26T03:02:24.069Z,15.50
2022-08-26T03:04:29.029Z,13.50
2022-08-26T03:06:38.524Z,11.07
2022-08-26T03:08:45.224Z,22.10
2022-08-26T03:10:49.848Z,10.95
2022-08-26T03:12:54.175Z,15.95
2022-08-26T03:14:58.886Z,14.65
2022-08-26T03:17:03.045Z,10.77
2022-08-26T03:19:10.682Z,12.82
2022-08-26T03:21:17.852Z,15.98
2022-08-26T03:23:22.633Z,18.17
2022-08-26T03:25:27.895Z,15.20
2022-08-26T03:27:33.201Z,9.80
2022-08-26T03:29:54.931Z,13.95
2022-08-26T03:32:00.838Z,26.25
2022-08-26T03:34:06.085Z,16.17
2022-08-26T03:36:12.420Z,18.35
2022-08-26T03:38:17.466Z,17.50
2022-08-26T03:40:22.600Z,11.13
2022-08-26T03:42:27.191Z,14.70
2022-08-26T03:44:32.446Z,12.20
2022-08-26T03:46:37.123Z,20.90
2022-08-26T03:48:42.303Z,21.25
2022-08-26T03:50:48.830Z,17.08
2022-08-26T03:52:57.404Z,12.35
2022-08-26T03:55:01.760Z,12.77
2022-08-26T03:57:09.294Z,15.52
2022-08-26T03:59:13.972Z,15.70
2022-08-26T04:01:19.041Z,12.73
2022-08-26T04:03:37.156Z,16.83
2022-08-26T04:05:41.885Z,14.50
2022-08-26T04:07:46.505Z,11.90
2022-08-26T04:09:56.119Z,12.27
2022-08-26T04:12:00.420Z,11.88
2022-08-26T04:14:07.837Z,18.10
2022-08-26T04:16:12.499Z,11.48
2022-08-26T04:18:17.265Z,12.18
2022-08-26T04:20:28.670Z,12.43
2022-08-26T04:22:32.963Z,13.98
2022-08-26T04:24:39.588Z,15.50
2022-08-26T04:26:45.470Z,13.07
2022-08-26T04:28:50.650Z,19.42
2022-08-26T04:30:55.149Z,11.20
2022-08-26T04:32:59.697Z,14.90
2022-08-26T04:35:04.165Z,16.40
2022-08-26T04:37:09.908Z,16.70
2022-08-26T04:39:16.870Z,16.00
2022-08-26T04:41:23.812Z,13.27
2022-08-26T04:43:31.426Z,13.20
2022-08-26T04:45:37.656Z,15.40
2022-08-26T04:47:43.274Z,14.02
2022-08-26T04:49:47.621Z,15.88
2022-08-26T04:51:52.871Z,19.20
2022-08-26T04:53:57.548Z,14.02
2022-08-26T04:56:01.861Z,9.32
2022-08-26T04:58:10.200Z,12.85
2022-08-26T05:00:16.900Z,15.00
2022-08-26T05:02:21.306Z,10.70
2022-08-26T05:04:25.577Z,12.23
2022-08-26T05:06:30.123Z,9.77
2022-08-26T05:08:41.195Z,15.23
2022-08-26T05:10:48.088Z,12.75
2022-08-26T05:12:52.270Z,20.10
2022-08-26T05:14:57.908Z,17.33
2022-08-26T05:17:03.895Z,10.82
2022-08-26T05:19:09.153Z,12.30
2022-08-26T05:21:20.114Z,9.48
2022-08-26T05:23:25.343Z,12.77
2022-08-26T05:25:30.053Z,18.30
2022-08-26T05:27:34.143Z,15.50
2022-08-26T05:29:38.346Z,20.92
2022-08-26T05:31:43.117Z,22.50
2022-08-26T05:33:49.071Z,18.92
2022-08-26T05:35:54.520Z,15.38
2022-08-26T05:38:16.446Z,18.85
2022-08-26T05:40:21.140Z,13.63
2022-08-26T05:42:25.388Z,17.70
2022-08-26T05:44:29.620Z,18.10
2022-08-26T05:46:53.737Z,14.13
2022-08-26T05:49:00.234Z,20.50
2022-08-26T05:51:06.586Z,13.80
2022-08-26T05:53:12.883Z,16.15
2022-08-26T05:55:17.627Z,15.38
2022-08-26T05:57:23.194Z,16.10
2022-08-26T05:59:28.163Z,12.50
2022-08-26T06:01:35.908Z,16.42
2022-08-26T06:03:44.822Z,11.43
2022-08-26T06:05:51.410Z,9.10
2022-08-26T06:08:14.789Z,11.73
2022-08-26T06:10:32.015Z,12.75
2022-08-26T06:12:37.533Z,11.88
2022-08-26T06:14:41.738Z,11.07
2022-08-26T06:16:46.286Z,16.85
2022-08-26T06:18:51.734Z,14.52
2022-08-26T06:20:58.354Z,13.40
2022-08-26T06:23:20.409Z,13.23
2022-08-26T06:25:41.471Z,13.75
2022-08-26T06:27:48.950Z,16.45
2022-08-26T06:29:53.693Z,10.10
2022-08-26T06:31:58.804Z,15.63
2022-08-26T06:34:07.249Z,15.52
2022-08-26T06:36:20.593Z,15.48
2022-08-26T06:38:25.198Z,12.25
2022-08-26T06:40:29.547Z,14.15
2022-08-26T06:42:34.202Z,14.52
2022-08-26T06:44:38.402Z,14.25
2022-08-26T06:46:45.744Z,9.85
2022-08-26T06:48:50.179Z,11.82
2022-08-26T06:51:03.724Z,13.43
2022-08-26T06:53:09.828Z,13.02
2022-08-26T06:55:14.180Z,17.77
2022-08-26T06:57:18.377Z,12.52
2022-08-26T06:59:22.599Z,14.07
2022-08-26T07:01:29.118Z,14.68
2022-08-26T07:03:35.041Z,13.07
2022-08-26T07:05:44.090Z,15.85
2022-08-26T07:07:49.635Z,10.65
2022-08-26T07:09:56.551Z,9.10
2022-08-26T07:12:01.987Z,11.07
2022-08-26T07:14:07.953Z,11.25
2022-08-26T07:16:14.299Z,12.60
2022-08-26T07:18:18.678Z,7.65
2022-08-26T07:20:26.527Z,10.00
2022-08-26T07:22:31.568Z,13.18
2022-08-26T07:24:38.292Z,9.98
2022-08-26T07:26:43.936Z,13.82
2022-08-26T07:28:50.670Z,9.18
2022-08-26T07:30:57.722Z,11.63
2022-08-26T07:33:03.383Z,12.05
2022-08-26T07:35:09.434Z,8.50
2022-08-26T07:37:13.704Z,12.30
2022-08-26T07:39:18.315Z,12.70
2022-08-26T07:41:24.619Z,14.90
2022-08-26T07:43:30.971Z,10.38
2022-08-26T07:45:35.338Z,15.20
2022-08-26T07:47:39.838Z,12.13
2022-08-26T07:49:44.874Z,15.65
2022-08-26T07:51:49.305Z,15.88
2022-08-26T07:53:54.286Z,10.10
2022-08-26T07:55:59.162Z,11.48
2022-08-26T07:58:03.767Z,14.93
2022-08-26T08:00:16.170Z,10.68
2022-08-26T08:02:20.438Z,10.07
2022-08-26T08:04:26.771Z,10.15
2022-08-26T08:06:31.142Z,9.40
2022-08-26T08:08:36.545Z,11.57
2022-08-26T08:10:41.518Z,10.23
2022-08-26T08:12:53.799Z,11.18
2022-08-26T08:14:58.310Z,16.63
2022-08-26T08:17:05.215Z,11.50
2022-08-26T08:19:09.619Z,11.30
2022-08-26T08:21:23.967Z,13.85
2022-08-26T08:23:28.633Z,12.45
2022-08-26T08:25:34.493Z,15.02
2022-08-26T08:27:41.284Z,14.38
2022-08-26T08:29:46.631Z,10.88
2022-08-26T08:31:56.983Z,15.10
2022-08-26T08:34:03.801Z,14.10
2022-08-26T08:36:09.368Z,11.32
2022-08-26T08:38:13.573Z,12.68
2022-08-26T08:40:18.639Z,14.27
2022-08-26T08:42:39.274Z,13.98
2022-08-26T08:44:52.344Z,13.10
2022-08-26T08:47:00.333Z,9.98
2022-08-26T08:49:06.157Z,12.98
2022-08-26T08:51:20.071Z,16.35
2022-08-26T08:53:31.833Z,18.50
2022-08-26T08:55:46.229Z,18.92
2022-08-26T08:58:03.542Z,9.65
2022-08-26T09:00:13.868Z,19.17
2022-08-26T09:02:27.279Z,15.77
2022-08-26T09:04:57.723Z,19.40
2022-08-26T09:07:05.663Z,9.73
2022-08-26T09:09:18.905Z,9.20
2022-08-26T09:11:23.197Z,14.02
2022-08-26T09:13:29.010Z,10.77
2022-08-26T09:15:47.777Z,12.63
2022-08-26T09:18:01.566Z,12.23
2022-08-26T09:20:20.644Z,16.25
2022-08-26T09:22:33.336Z,15.68
2022-08-26T09:24:41.520Z,12.75
2022-08-26T09:26:48.636Z,8.85
2022-08-26T09:29:01.187Z,11.18
2022-08-26T09:31:13.690Z,14.98
2022-08-26T09:33:19.591Z,14.93
2022-08-26T09:35:30.986Z,11.65
2022-08-26T09:37:39.670Z,10.45
2022-08-26T09:39:43.853Z,11.63
2022-08-26T09:42:04.473Z,16.30
2022-08-26T09:44:18.391Z,15.88
2022-08-26T09:46:29.190Z,7.15
2022-08-26T09:48:37.680Z,13.30
2022-08-26T09:50:57.116Z,16.90
2022-08-26T09:53:13.069Z,13.25
2022-08-26T09:55:23.665Z,17.35
2022-08-26T09:57:30.350Z,13.05
2022-08-26T09:59:36.380Z,12.32
2022-08-26T10:01:43.166Z,9.80
2022-08-26T10:03:47.696Z,12.90
2022-08-26T10:06:00.227Z,18.38
2022-08-26T10:08:22.996Z,16.60
2022-08-26T10:10:32.791Z,16.30
2022-08-26T10:12:41.393Z,12.60
2022-08-26T10:14:50.500Z,14.80
2022-08-26T10:19:08.720Z,13.60
2022-08-26T10:21:21.296Z,14.40
2022-08-26T10:23:28.611Z,13.75
2022-08-26T10:25:39.258Z,14.88
2022-08-26T10:27:53.484Z,15.27
2022-08-26T10:30:05.167Z,21.65
2022-08-26T10:32:14.067Z,16.95
2022-08-26T10:34:21.215Z,18.15
2022-08-26T10:37:10.639Z,15.45
2022-08-26T10:39:15.963Z,14.30
2022-08-26T10:41:24.581Z,12.48
2022-08-26T10:43:31.930Z,15.30
2022-08-26T10:45:40.197Z,16.92
2022-08-26T10:47:50.489Z,16.40
2022-08-26T10:50:00.003Z,20.17
2022-08-26T10:52:17.048Z,21.00
2022-08-26T10:54:28.299Z,16.27
2022-08-26T10:56:44.770Z,15.10
2022-08-26T10:58:59.975Z,12.82
2022-08-26T11:01:29.153Z,21.90
2022-08-26T11:03:42.009Z,19.15
2022-08-26T11:05:46.165Z,16.95
2022-08-26T11:07:54.935Z,16.42
2022-08-26T11:10:00.460Z,24.08
2022-08-26T11:12:10.023Z,18.02
2022-08-26T11:14:40.615Z,21.17
2022-08-26T11:16:58.693Z,21.67
2022-08-26T11:19:03.210Z,29.95
2022-08-26T11:21:52.580Z,20.00
2022-08-26T11:26:35.672Z,23.00
2022-08-26T11:28:44.174Z,29.50
2022-08-26T11:30:56.925Z,26.20
2022-08-26T11:33:02.081Z,32.65
2022-08-26T11:35:09.396Z,25.15
2022-08-26T11:37:16.593Z,23.90
2022-08-26T11:39:29.819Z,22.92
2022-08-26T11:41:35.612Z,19.95
2022-08-26T11:43:42.677Z,18.38
2022-08-26T11:45:49.551Z,18.20
2022-08-26T11:47:54.948Z,24.67
2022-08-26T11:50:11.364Z,20.55
2022-08-26T11:52:20.875Z,18.45
2022-08-26T11:54:35.190Z,19.52
2022-08-26T11:56:42.874Z,21.58
2022-08-26T11:58:49.153Z,22.38
2022-08-26T12:00:57.965Z,15.75
2022-08-26T12:05:10.848Z,16.20
2022-08-26T12:07:16.637Z,17.08
2022-08-26T12:09:24.863Z,21.13
2022-08-26T12:11:32.088Z,18.60
2022-08-26T12:13:39.075Z,17.90
2022-08-26T12:15:52.801Z,25.35
2022-08-26T12:18:18.267Z,17.65
2022-08-26T12:20:48.355Z,21.38
2022-08-26T12:22:52.625Z,33.22
2022-08-26T12:24:59.834Z,36.13
2022-08-26T12:27:18.019Z,26.23
2022-08-26T12:29:28.211Z,30.77
2022-08-26T12:31:39.484Z,19.65
2022-08-26T12:33:44.254Z,17.60
2022-08-26T12:35:51.443Z,24.55
2022-08-26T12:37:58.894Z,29.58
2022-08-26T12:40:35.540Z,23.63
2022-08-26T12:42:43.823Z,26.08
2022-08-26T12:44:53.805Z,19.10
2022-08-26T12:47:04.367Z,15.05
2022-08-26T12:49:09.404Z,16.05
2022-08-26T12:51:23.214Z,22.80
2022-08-26T12:53:29.458Z,19.13
2022-08-26T12:55:40.461Z,25.67
2022-08-26T12:57:47.476Z,23.48
2022-08-26T12:59:51.664Z,15.52
2022-08-26T13:01:56.060Z,23.35
2022-08-26T13:04:00.419Z,20.73
2022-08-26T13:06:25.833Z,20.75
2022-08-26T13:08:31.420Z,19.63
2022-08-26T13:10:36.798Z,17.95
2022-08-26T13:12:41.426Z,16.42
2022-08-26T13:14:47.167Z,18.98
2022-08-26T13:16:51.730Z,27.95
2022-08-26T13:18:58.870Z,20.70
2022-08-26T13:21:10.257Z,28.70
2022-08-26T13:23:15.309Z,17.85
2022-08-26T13:25:19.850Z,18.30
2022-08-26T13:27:26.281Z,23.08
2022-08-26T13:29:30.810Z,19.92
2022-08-26T13:31:39.789Z,22.45
2022-08-26T13:33:44.581Z,19.92
2022-08-26T13:35:49.439Z,34.40
2022-08-26T13:37:53.760Z,46.95
2022-08-26T13:39:58.328Z,25.25
2022-08-26T13:42:02.448Z,25.17
2022-08-26T13:44:06.673Z,19.23
2022-08-26T13:46:10.969Z,24.80
2022-08-26T13:48:21.536Z,25.27
2022-08-26T13:50:27.549Z,26.92
2022-08-26T13:52:31.753Z,19.88
2022-08-26T13:54:36.257Z,24.55
2022-08-26T13:56:40.484Z,39.25
2022-08-26T13:58:44.595Z,17.98
2022-08-26T14:00:50.353Z,24.73
2022-08-26T14:02:54.612Z,31.05
2022-08-26T14:05:00.206Z,25.13
2022-08-26T14:07:04.565Z,22.48
2022-08-26T14:09:08.773Z,26.48
2022-08-26T14:11:16.034Z,26.15
2022-08-26T14:13:20.484Z,17.20
2022-08-26T14:15:24.720Z,19.92
2022-08-26T14:17:32.863Z,26.33
2022-08-26T14:19:37.771Z,22.58
2022-08-26T14:21:43.464Z,27.08
2022-08-26T14:23:47.981Z,21.90
2022-08-26T14:25:52.222Z,23.17
2022-08-26T14:27:56.863Z,23.33
2022-08-26T14:30:01.005Z,18.10
2022-08-26T14:32:11.548Z,25.60
2022-08-26T14:34:15.931Z,27.35
2022-08-26T14:36:29.165Z,19.90
2022-08-26T14:38:34.778Z,28.58
2022-08-26T14:40:40.256Z,23.75
2022-08-26T14:42:49.150Z,21.80
2022-08-26T14:45:00.179Z,18.33
2022-08-26T14:47:06.725Z,30.92
2022-08-26T14:49:11.232Z,26.10
2022-08-26T14:51:15.396Z,29.83
2022-08-26T14:53:48.746Z,30.58
2022-08-26T14:55:54.407Z,30.08
2022-08-26T14:57:58.589Z,13.02
2022-08-26T15:00:02.722Z,15.55
2022-08-26T15:02:08.172Z,25.17
2022-08-26T15:04:12.759Z,21.75
2022-08-26T15:06:17.747Z,24.77
2022-08-26T15:08:21.920Z,28.60
2022-08-26T15:10:26.126Z,22.15
2022-08-26T15:12:31.676Z,20.42
2022-08-26T15:14:35.825Z,25.42
2022-08-26T15:16:39.931Z,24.92
2022-08-26T15:18:44.151Z,35.92
2022-08-26T15:20:48.400Z,23.83
2022-08-26T15:22:52.467Z,25.05
2022-08-26T15:24:58.701Z,22.50
2022-08-26T15:27:02.817Z,21.42
2022-08-26T15:29:08.669Z,25.42
2022-08-26T15:31:13.028Z,26.95
2022-08-26T15:33:17.183Z,27.20
2022-08-26T15:35:21.323Z,24.67
2022-08-26T15:37:25.560Z,33.35
2022-08-26T15:39:30.028Z,21.70
2022-08-26T15:41:35.283Z,18.80
2022-08-26T15:43:39.836Z,15.77
2022-08-26T15:45:45.311Z,17.95
2022-08-26T15:48:01.189Z,34.53
2022-08-26T15:50:06.744Z,32.50
2022-08-26T15:52:10.962Z,30.77
2022-08-26T15:54:16.720Z,29.45
2022-08-26T15:56:21.022Z,26.67
2022-08-26T15:58:27.212Z,33.70
2022-08-26T16:00:31.398Z,76.60
2022-08-26T16:02:36.918Z,49.10
2022-08-26T16:04:41.919Z,51.10
2022-08-26T16:06:50.395Z,34.90
2022-08-26T16:08:55.447Z,40.75
2022-08-26T16:11:03.503Z,45.10
2022-08-26T16:13:10.350Z,35.63
2022-08-26T16:15:17.139Z,39.65
2022-08-26T16:17:21.289Z,52.35
2022-08-26T16:19:26.871Z,38.55
2022-08-26T16:21:30.939Z,35.45
2022-08-26T16:23:36.123Z,39.95
2022-08-26T16:25:40.243Z,27.85
2022-08-26T16:27:44.599Z,30.38
2022-08-26T16:29:48.825Z,30.30
2022-08-26T16:31:53.872Z,24.65
2022-08-26T16:33:58.071Z,24.40
2022-08-26T16:36:04.068Z,14.35
2022-08-26T16:38:09.001Z,37.25
2022-08-26T16:40:13.650Z,28.20
2022-08-26T16:42:17.896Z,32.20
2022-08-26T16:44:22.403Z,27.88
2022-08-26T16:46:27.223Z,39.75
2022-08-26T16:48:31.434Z,29.65
2022-08-26T16:50:35.593Z,36.38
2022-08-26T16:52:41.815Z,34.05
2022-08-26T16:54:47.100Z,33.45
2022-08-26T16:56:51.465Z,33.88
2022-08-26T16:58:55.838Z,30.88
2022-08-26T17:01:00.111Z,31.13
2022-08-26T17:03:04.765Z,36.42
2022-08-26T17:05:10.353Z,44.60
2022-08-26T17:07:14.674Z,31.55
2022-08-26T17:09:20.272Z,42.85
2022-08-26T17:11:24.505Z,37.67
2022-08-26T17:13:35.474Z,27.20
2022-08-26T17:15:40.740Z,36.53
2022-08-26T17:17:45.272Z,37.63
2022-08-26T17:19:49.419Z,31.35
2022-08-26T17:21:53.606Z,31.70
2022-08-26T17:23:57.870Z,42.00
2022-08-26T17:26:03.590Z,34.85
2022-08-26T17:28:13.236Z,39.83
2022-08-26T17:30:18.425Z,29.80
2022-08-26T17:32:22.859Z,32.42
2022-08-26T17:34:27.141Z,28.58
2022-08-26T17:36:31.418Z,27.73
2022-08-26T17:38:35.882Z,36.35
2022-08-26T17:40:40.954Z,36.35
2022-08-26T17:42:47.020Z,44.88
2022-08-26T17:44:51.336Z,38.25
2022-08-26T17:46:55.625Z,38.90
2022-08-26T17:48:59.857Z,37.20
2022-08-26T17:51:08.161Z,41.63
2022-08-26T17:53:18.898Z,31.60
2022-08-26T17:55:23.685Z,35.97
2022-08-26T17:57:28.419Z,38.40
2022-08-26T17:59:34.936Z,35.35
2022-08-26T18:01:39.969Z,43.15
2022-08-26T18:03:44.331Z,42.45
2022-08-26T18:05:49.823Z,43.30
2022-08-26T18:07:54.017Z,42.33
2022-08-26T18:09:58.546Z,39.17
2022-08-26T18:12:02.887Z,30.73
2022-08-26T18:14:07.249Z,33.45
2022-08-26T18:16:13.218Z,39.13
2022-08-26T18:18:17.473Z,43.70
2022-08-26T18:20:22.296Z,39.35
2022-08-26T18:22:26.671Z,42.60
2022-08-26T18:24:32.285Z,38.88
2022-08-26T18:26:38.423Z,38.90
2022-08-26T18:28:42.585Z,34.28
2022-08-26T18:30:47.482Z,46.58
2022-08-26T18:32:53.973Z,46.88
2022-08-26T18:34:58.182Z,57.00
2022-08-26T18:37:02.474Z,48.88
2022-08-26T18:39:08.087Z,41.15
2022-08-26T18:41:12.410Z,40.20
2022-08-26T18:43:17.070Z,47.58
2022-08-26T18:45:21.286Z,42.67
2022-08-26T18:47:25.534Z,37.40
2022-08-26T18:49:31.173Z,42.42
2022-08-26T18:51:36.840Z,56.50
2022-08-26T18:53:42.060Z,42.30
2022-08-26T18:55:46.498Z,59.50
2022-08-26T18:57:50.814Z,51.35
2022-08-26T18:59:55.603Z,48.97
2022-08-26T19:02:00.173Z,45.17
2022-08-26T19:04:07.099Z,46.40
2022-08-26T19:06:16.866Z,41.45
2022-08-26T19:08:22.367Z,48.05
2022-08-26T19:10:30.214Z,66.50
2022-08-26T19:12:35.518Z,49.38
2022-08-26T19:14:39.790Z,49.47
2022-08-26T19:16:47.306Z,45.45
2022-08-26T19:18:53.284Z,46.58
2022-08-26T19:20:57.838Z,35.83
2022-08-26T19:23:10.582Z,56.72
2022-08-26T19:25:25.789Z,45.42
2022-08-26T19:27:32.670Z,48.35
2022-08-26T19:29:40.145Z,45.40
2022-08-26T19:31:46.422Z,54.78
2022-08-26T19:33:52.378Z,52.75
2022-08-26T19:35:57.064Z,42.63
2022-08-26T19:38:06.373Z,51.10
2022-08-26T19:40:11.837Z,40.38
2022-08-26T19:42:16.595Z,43.65
2022-08-26T19:44:42.095Z,41.13
2022-08-26T19:46:49.064Z,48.50
2022-08-26T19:48:55.741Z,44.40
2022-08-26T19:51:00.263Z,34.33
2022-08-26T19:53:05.998Z,46.13
2022-08-26T19:55:12.666Z,34.38
2022-08-26T19:57:17.150Z,44.85
2022-08-26T19:59:21.781Z,39.80
2022-08-26T20:01:26.518Z,38.28
2022-08-26T20:03:30.818Z,46.50
2022-08-26T20:05:35.165Z,52.42
2022-08-26T20:07:40.129Z,44.00
2022-08-26T20:09:45.942Z,44.20
2022-08-26T20:11:52.074Z,36.03
2022-08-26T20:14:00.904Z,41.92
2022-08-26T20:16:05.897Z,46.08
2022-08-26T20:18:30.394Z,35.03
2022-08-26T20:20:51.723Z,38.72
2022-08-26T20:22:56.063Z,41.70
2022-08-26T20:25:01.722Z,46.35
2022-08-26T20:27:08.285Z,38.17
2022-08-26T20:29:14.452Z,40.92
2022-08-26T20:31:21.491Z,38.75
2022-08-26T20:33:25.842Z,37.70
2022-08-26T20:35:30.514Z,42.38
2022-08-26T20:37:35.767Z,41.05
2022-08-26T20:39:41.842Z,36.50
2022-08-26T20:41:55.410Z,39.70
2022-08-26T20:43:59.837Z,48.65
2022-08-26T20:46:08.341Z,36.97
2022-08-26T20:48:22.105Z,42.20
2022-08-26T20:50:26.530Z,44.95
2022-08-26T20:52:33.712Z,41.85
2022-08-26T20:54:38.365Z,30.33
2022-08-26T20:56:42.683Z,30.42
2022-08-26T20:58:48.365Z,39.35
2022-08-26T21:00:52.610Z,35.67
2022-08-26T21:02:57.520Z,32.40
2022-08-26T21:05:01.863Z,33.45
2022-08-26T21:07:07.259Z,40.72
2022-08-26T21:09:13.817Z,37.90
2022-08-26T21:11:20.189Z,26.23
2022-08-26T21:13:24.438Z,32.72
2022-08-26T21:15:30.071Z,32.90
2022-08-26T21:17:35.658Z,30.33
2022-08-26T21:19:39.933Z,25.00
2022-08-26T21:21:44.540Z,34.20
2022-08-26T21:23:48.982Z,31.67
2022-08-26T21:25:53.332Z,32.97
2022-08-26T21:27:57.662Z,33.35
2022-08-26T21:30:01.924Z,29.60
2022-08-26T21:32:10.442Z,32.05
2022-08-26T21:34:20.600Z,34.78
2022-08-26T21:36:25.725Z,29.08
2022-08-26T21:38:31.229Z,32.08
2022-08-26T21:40:38.569Z,40.03
2022-08-26T21:42:51.475Z,38.85
2022-08-26T21:44:56.083Z,35.00
2022-08-26T21:47:00.253Z,31.73
2022-08-26T21:49:08.873Z,34.40
2022-08-26T21:51:14.992Z,37.15
2022-08-26T21:53:19.533Z,37.25
2022-08-26T21:55:23.764Z,34.33
2022-08-26T21:57:29.178Z,38.88
2022-08-26T21:59:33.695Z,33.30
2022-08-26T22:01:38.735Z,34.90
2022-08-26T22:03:47.445Z,28.60
2022-08-26T22:05:53.842Z,36.72
2022-08-26T22:07:58.060Z,37.42
2022-08-26T22:10:02.463Z,34.75
2022-08-26T22:12:10.202Z,41.15
2022-08-26T22:14:15.174Z,38.65
2022-08-26T22:16:19.374Z,41.15
2022-08-26T22:18:23.652Z,33.10
2022-08-26T22:20:27.877Z,33.40
2022-08-26T22:22:33.523Z,40.17
2022-08-26T22:24:37.972Z,37.30
2022-08-26T22:26:42.230Z,39.05
2022-08-26T22:28:46.685Z,31.88
2022-08-26T22:30:51.634Z,35.78
2022-08-26T22:32:55.924Z,37.92
2022-08-26T22:35:00.199Z,47.72
2022-08-26T22:37:04.629Z,28.67
2022-08-26T22:39:10.648Z,39.60
2022-08-26T22:41:15.446Z,40.40
2022-08-26T22:43:20.491Z,37.78
2022-08-26T22:45:24.744Z,33.13
2022-08-26T22:47:29.195Z,39.00
2022-08-26T22:49:33.367Z,34.67
2022-08-26T22:51:37.795Z,37.20
2022-08-26T22:53:42.313Z,34.28
2022-08-26T22:55:48.361Z,34.03
2022-08-26T22:57:52.664Z,44.88
2022-08-26T22:59:56.983Z,41.25
2022-08-26T23:02:01.100Z,32.80
2022-08-26T23:04:06.585Z,27.98
2022-08-26T23:06:12.029Z,34.13
2022-08-26T23:08:16.606Z,28.50
2022-08-26T23:10:20.986Z,35.05
2022-08-26T23:12:27.695Z,35.22
2022-08-26T23:14:33.616Z,29.70
2022-08-26T23:16:39.596Z,37.60
2022-08-26T23:18:43.999Z,30.05
2022-08-26T23:20:48.323Z,31.88
2022-08-26T23:22:53.495Z,37.10
2022-08-26T23:24:57.811Z,26.83
2022-08-26T23:27:03.971Z,34.25
2022-08-26T23:29:11.089Z,38.00
2022-08-26T23:31:16.505Z,34.97
2022-08-26T23:33:20.812Z,29.70
2022-08-26T23:35:24.949Z,29.92
2022-08-26T23:37:34.049Z,25.52
2022-08-26T23:39:40.091Z,25.65
2022-08-26T23:41:44.468Z,32.75
2022-08-26T23:43:49.040Z,28.52
2022-08-26T23:45:54.730Z,32.00
2022-08-26T23:47:59.201Z,24.58
2022-08-26T23:50:03.587Z,39.53
2022-08-26T23:52:25.914Z,29.10
2022-08-26T23:54:31.656Z,32.78
2022-08-26T23:56:35.889Z,35.20
2022-08-26T23:58:40.277Z,35.15
